createdAt,value
2018-11-20T00:02:20.848Z,13.77
2018-11-20T00:05:09.468Z,15.80
2018-11-20T00:08:03.995Z,17.50
2018-11-20T00:10:59.088Z,13.53
2018-11-20T00:13:59.261Z,12.90
2018-11-20T00:16:33.960Z,14.13
2018-11-20T00:19:20.981Z,13.50
2018-11-20T00:22:07.776Z,13.13
2018-11-20T00:25:10.958Z,11.40
2018-11-20T00:27:58.088Z,11.87
2018-11-20T00:30:45.237Z,14.87
2018-11-20T00:33:33.960Z,12.80
2018-11-20T00:36:28.307Z,12.67
2018-11-20T00:39:19.685Z,16.97
2018-11-20T00:42:20.531Z,14.83
2018-11-20T00:45:11.541Z,16.37
2018-11-20T00:48:08.768Z,13.40
2018-11-20T00:50:57.166Z,18.93
2018-11-20T00:53:43.992Z,18.50
2018-11-20T00:57:10.643Z,17.13
2018-11-20T00:59:59.603Z,17.60
2018-11-20T01:02:57.017Z,14.53
2018-11-20T01:05:44.336Z,16.23
2018-11-20T01:08:41.786Z,17.87
2018-11-20T01:11:32.140Z,15.80
2018-11-20T01:14:23.234Z,17.77
2018-11-20T01:17:08.114Z,15.93
2018-11-20T01:19:55.354Z,19.30
2018-11-20T01:22:42.050Z,16.37
2018-11-20T01:25:28.951Z,14.27
2018-11-20T01:28:32.360Z,15.10
2018-11-20T01:31:18.443Z,16.03
2018-11-20T01:34:09.390Z,17.80
2018-11-20T01:36:56.835Z,16.53
2018-11-20T01:40:00.298Z,17.00
2018-11-20T01:42:47.349Z,17.33
2018-11-20T01:45:34.532Z,16.73
2018-11-20T01:48:35.089Z,19.20
2018-11-20T01:51:22.559Z,16.47
2018-11-20T01:54:16.615Z,16.63
2018-11-20T01:57:19.971Z,18.20
2018-11-20T02:00:07.024Z,17.57
2018-11-20T02:02:48.031Z,16.53
2018-11-20T02:05:48.201Z,18.73
2018-11-20T02:08:48.423Z,18.37
2018-11-20T02:11:36.787Z,17.33
2018-11-20T02:14:32.219Z,18.03
2018-11-20T02:17:21.403Z,21.87
2018-11-20T02:20:08.431Z,22.40
2018-11-20T02:22:55.792Z,21.23
2018-11-20T02:25:42.952Z,22.07
2018-11-20T02:28:49.555Z,24.80
2018-11-20T02:31:29.480Z,23.23
2018-11-20T02:34:27.672Z,22.87
2018-11-20T02:37:15.277Z,19.50
2018-11-20T02:40:02.327Z,24.50
2018-11-20T02:43:02.920Z,20.60
2018-11-20T02:45:48.083Z,19.27
2018-11-20T02:48:42.336Z,22.90
2018-11-20T02:51:37.118Z,19.27
2018-11-20T02:54:24.274Z,20.93
2018-11-20T02:57:11.465Z,21.90
2018-11-20T02:59:57.512Z,22.33
2018-11-20T03:02:52.020Z,19.53
2018-11-20T03:05:39.074Z,21.53
2018-11-20T03:08:27.460Z,21.53
2018-11-20T03:11:23.999Z,20.93
2018-11-20T03:14:14.782Z,21.20
2018-11-20T03:17:18.598Z,20.53
2018-11-20T03:20:06.929Z,19.97
2018-11-20T03:22:54.142Z,20.17
2018-11-20T03:26:07.994Z,19.20
2018-11-20T03:28:58.569Z,21.80
2018-11-20T03:31:44.438Z,21.90
2018-11-20T03:34:30.395Z,21.53
2018-11-20T03:37:21.505Z,20.23
2018-11-20T03:40:13.202Z,20.47
2018-11-20T03:43:01.670Z,21.47
2018-11-20T03:45:44.563Z,21.60
2018-11-20T03:48:48.004Z,21.70
2018-11-20T03:51:36.423Z,23.90
2018-11-20T03:54:28.581Z,21.23
2018-11-20T03:57:15.864Z,22.73
2018-11-20T04:00:09.161Z,23.33
2018-11-20T04:03:05.562Z,24.27
2018-11-20T04:05:52.773Z,22.17
2018-11-20T04:08:37.287Z,22.83
2018-11-20T04:11:26.019Z,23.97
2018-11-20T04:14:14.379Z,24.60
2018-11-20T04:17:01.416Z,21.53
2018-11-20T04:19:55.457Z,22.03
2018-11-20T04:22:46.736Z,21.53
2018-11-20T04:25:41.151Z,22.73
2018-11-20T04:28:28.188Z,23.47
2018-11-20T04:31:58.417Z,23.30
2018-11-20T04:34:37.833Z,23.20
2018-11-20T04:37:41.173Z,25.07
2018-11-20T04:40:28.195Z,24.57
2018-11-20T04:43:34.584Z,24.50
2018-11-20T04:46:22.958Z,24.93
2018-11-20T04:49:11.351Z,27.33
2018-11-20T04:52:09.104Z,25.43
2018-11-20T04:55:06.725Z,25.77
2018-11-20T04:58:04.048Z,27.00
2018-11-20T05:00:55.287Z,26.40
2018-11-20T05:03:53.046Z,30.13
2018-11-20T05:06:40.053Z,26.27
2018-11-20T05:09:28.454Z,28.60
2018-11-20T05:12:16.798Z,26.67
2018-11-20T05:15:14.025Z,31.87
2018-11-20T05:18:00.986Z,30.27
2018-11-20T05:20:52.341Z,32.20
2018-11-20T05:23:49.595Z,31.60
2018-11-20T05:26:36.502Z,34.33
2018-11-20T05:29:22.796Z,30.63
2018-11-20T05:32:10.040Z,31.87
2018-11-20T05:34:56.770Z,32.77
2018-11-20T05:37:45.102Z,29.80
2018-11-20T05:40:32.550Z,29.87
2018-11-20T05:43:19.483Z,31.87
2018-11-20T05:46:22.961Z,32.47
2018-11-20T05:49:20.479Z,32.23
2018-11-20T05:52:14.665Z,34.23
2018-11-20T05:55:05.785Z,32.23
2018-11-20T05:57:52.986Z,39.23
2018-11-20T06:00:53.583Z,32.83
2018-11-20T06:04:00.373Z,31.83
2018-11-20T06:07:00.517Z,33.53
2018-11-20T06:09:51.781Z,35.87
2018-11-20T06:12:38.503Z,34.80
2018-11-20T06:15:36.609Z,38.70
2018-11-20T06:18:27.777Z,37.47
2018-11-20T06:21:34.226Z,41.77
2018-11-20T06:24:23.090Z,42.40
2018-11-20T06:27:23.160Z,33.60
2018-11-20T06:30:07.812Z,40.20
2018-11-20T06:32:58.092Z,39.80
2018-11-20T06:35:52.382Z,43.13
2018-11-20T06:38:46.662Z,39.17
2018-11-20T06:41:35.029Z,43.57
2018-11-20T06:44:26.130Z,46.20
2018-11-20T06:47:26.678Z,47.40
2018-11-20T06:50:22.575Z,42.77
2018-11-20T06:53:06.133Z,42.47
2018-11-20T06:55:52.950Z,44.13
2018-11-20T06:58:39.960Z,39.63
2018-11-20T07:01:26.748Z,45.80
2018-11-20T07:04:15.090Z,41.73
2018-11-20T07:07:12.513Z,45.03
2018-11-20T07:10:03.740Z,43.10
2018-11-20T07:12:52.070Z,42.63
2018-11-20T07:15:43.239Z,43.17
2018-11-20T07:18:30.144Z,41.27
2018-11-20T07:21:27.726Z,45.10
2018-11-20T07:24:16.077Z,43.33
2018-11-20T07:27:03.396Z,41.20
2018-11-20T07:29:51.028Z,43.30
2018-11-20T07:32:51.817Z,42.30
2018-11-20T07:35:36.079Z,43.13
2018-11-20T07:38:23.896Z,41.67
2018-11-20T07:41:12.297Z,43.17
2018-11-20T07:44:03.499Z,43.23
2018-11-20T07:46:50.697Z,41.83
2018-11-20T07:49:35.953Z,42.47
2018-11-20T07:52:23.513Z,44.53
2018-11-20T07:55:15.075Z,46.53
2018-11-20T07:58:04.588Z,38.50
2018-11-20T08:00:51.811Z,40.83
2018-11-20T08:03:40.454Z,41.67
2018-11-20T08:06:31.504Z,40.50
2018-11-20T08:09:18.751Z,43.67
2018-11-20T08:12:07.734Z,45.17
2018-11-20T08:14:47.477Z,38.67
2018-11-20T08:17:36.122Z,42.00
2018-11-20T08:20:23.420Z,40.60
2018-11-20T08:23:12.419Z,45.17
2018-11-20T08:26:06.786Z,43.67
2018-11-20T08:28:53.755Z,41.60
2018-11-20T08:31:53.997Z,42.70
2018-11-20T08:35:00.595Z,40.77
2018-11-20T08:37:39.540Z,39.23
2018-11-20T08:40:29.510Z,39.20
2018-11-20T08:43:16.651Z,42.63
2018-11-20T08:46:08.031Z,45.20
2018-11-20T08:48:59.183Z,36.63
2018-11-20T08:51:53.556Z,37.93
2018-11-20T08:54:50.831Z,41.17
2018-11-20T08:57:52.371Z,42.97
2018-11-20T09:00:35.356Z,40.37
2018-11-20T09:03:22.431Z,38.97
2018-11-20T09:06:09.228Z,41.77
2018-11-20T09:09:06.586Z,41.17
2018-11-20T09:11:53.360Z,39.17
2018-11-20T09:14:40.660Z,44.97
2018-11-20T09:17:47.434Z,41.57
2018-11-20T09:20:40.204Z,40.87
2018-11-20T09:23:32.464Z,45.67
2018-11-20T09:26:19.767Z,42.13
2018-11-20T09:29:08.126Z,42.40
2018-11-20T09:31:58.203Z,42.70
2018-11-20T09:34:54.709Z,44.13
2018-11-20T09:37:58.411Z,40.33
2018-11-20T09:41:18.699Z,45.63
2018-11-20T09:44:45.703Z,44.27
2018-11-20T09:47:32.634Z,44.10
2018-11-20T09:50:30.081Z,42.63
2018-11-20T09:53:17.514Z,40.90
2018-11-20T09:56:19.154Z,49.37
2018-11-20T09:59:05.466Z,40.67
2018-11-20T10:01:59.522Z,43.37
2018-11-20T10:05:02.888Z,47.77
2018-11-20T10:07:46.151Z,44.77
2018-11-20T10:10:32.947Z,39.10
2018-11-20T10:13:12.381Z,41.30
2018-11-20T10:16:09.816Z,44.60
2018-11-20T10:19:04.131Z,40.13
2018-11-20T10:21:55.575Z,42.97
2018-11-20T10:24:52.686Z,39.83
2018-11-20T10:27:46.782Z,44.17
2018-11-20T10:30:41.253Z,45.20
2018-11-20T10:33:35.745Z,40.20
2018-11-20T10:36:30.268Z,40.57
2018-11-20T10:39:21.750Z,39.47
2018-11-20T10:42:04.803Z,40.50
2018-11-20T10:44:43.507Z,42.80
2018-11-20T10:47:30.534Z,40.77
2018-11-20T10:50:19.155Z,39.50
2018-11-20T10:53:06.134Z,45.37
2018-11-20T10:55:42.641Z,41.57
2018-11-20T10:58:29.625Z,42.63
2018-11-20T11:01:16.852Z,43.87
2018-11-20T11:04:23.447Z,45.00
2018-11-20T11:07:01.892Z,47.93
2018-11-20T11:09:43.461Z,41.30
2018-11-20T11:12:31.878Z,47.53
2018-11-20T11:15:25.788Z,41.97
2018-11-20T11:18:26.914Z,42.47
2018-11-20T11:21:13.907Z,43.17
2018-11-20T11:24:11.521Z,43.47
2018-11-20T11:26:54.832Z,43.40
2018-11-20T11:29:49.402Z,42.07
2018-11-20T11:32:37.744Z,40.53
2018-11-20T11:35:25.489Z,47.53
2018-11-20T11:38:14.162Z,41.27
2018-11-20T11:40:58.490Z,38.53
2018-11-20T11:43:56.267Z,49.07
2018-11-20T11:46:44.613Z,49.10
2018-11-20T11:49:45.611Z,46.40
2018-11-20T11:52:33.998Z,42.43
2018-11-20T11:55:40.540Z,46.53
2018-11-20T11:58:27.591Z,43.73
2018-11-20T12:01:19.210Z,49.77
2018-11-20T12:06:48.037Z,44.73
2018-11-20T12:09:39.259Z,39.33
2018-11-20T12:12:26.783Z,47.43
2018-11-20T12:15:24.364Z,39.40
2018-11-20T12:18:11.301Z,44.73
2018-11-20T12:21:05.738Z,42.03
2018-11-20T12:24:00.042Z,45.17
2018-11-20T12:26:54.635Z,45.03
2018-11-20T12:30:01.226Z,42.33
2018-11-20T12:32:53.821Z,42.27
2018-11-20T12:35:40.909Z,45.63
2018-11-20T12:38:30.398Z,44.03
2018-11-20T12:41:31.106Z,43.60
2018-11-20T12:44:25.836Z,43.10
2018-11-20T12:47:29.408Z,42.83
2018-11-20T12:50:53.188Z,48.50
2018-11-20T12:53:43.717Z,42.90
2018-11-20T12:56:34.089Z,42.63
2018-11-20T12:59:20.927Z,44.40
2018-11-20T13:02:08.837Z,42.93
2018-11-20T13:05:05.226Z,44.10
2018-11-20T13:07:58.535Z,46.67
2018-11-20T13:10:44.755Z,39.90
2018-11-20T13:13:30.693Z,48.20
2018-11-20T13:16:18.245Z,41.00
2018-11-20T13:18:59.314Z,46.53
2018-11-20T13:21:44.717Z,42.23
2018-11-20T13:24:32.707Z,48.33
2018-11-20T13:27:35.260Z,46.67
2018-11-20T13:30:21.477Z,49.00
2018-11-20T13:32:57.950Z,47.13
2018-11-20T13:35:41.946Z,49.33
2018-11-20T13:38:29.362Z,47.70
2018-11-20T13:41:53.041Z,40.47
2018-11-20T13:44:36.872Z,47.93
2018-11-20T13:47:27.375Z,50.70
2018-11-20T13:50:08.745Z,45.27
2018-11-20T13:52:54.878Z,45.67
2018-11-20T13:55:39.726Z,45.70
2018-11-20T13:58:42.430Z,42.77
2018-11-20T14:01:30.317Z,45.10
2018-11-20T14:04:18.287Z,43.90
2018-11-20T14:07:12.028Z,47.40
2018-11-20T14:10:05.835Z,45.17
2018-11-20T14:12:52.586Z,47.63
2018-11-20T14:15:39.069Z,46.90
2018-11-20T14:18:32.764Z,43.67
2018-11-20T14:21:26.640Z,49.27
2018-11-20T14:24:26.079Z,49.30
2018-11-20T14:27:17.387Z,46.23
2018-11-20T14:30:03.604Z,47.67
2018-11-20T14:32:43.479Z,46.97
2018-11-20T14:35:34.185Z,43.93
2018-11-20T14:38:20.416Z,52.43
2018-11-20T14:41:08.069Z,48.63
2018-11-20T14:43:58.291Z,57.83
2018-11-20T14:46:44.629Z,48.30
2018-11-20T14:49:27.963Z,48.87
2018-11-20T14:52:14.888Z,43.13
2018-11-20T14:55:01.716Z,48.77
2018-11-20T14:57:47.915Z,44.23
2018-11-20T15:00:47.493Z,42.93
2018-11-20T15:03:33.266Z,46.83
2018-11-20T15:06:38.917Z,48.23
2018-11-20T15:09:33.908Z,48.77
2018-11-20T15:12:20.816Z,48.40
2018-11-20T15:15:07.183Z,46.87
2018-11-20T15:18:09.928Z,50.93
2018-11-20T15:21:00.450Z,51.33
2018-11-20T15:23:41.461Z,47.73
2018-11-20T15:26:35.140Z,49.30
2018-11-20T15:29:25.401Z,48.53
2018-11-20T15:32:15.684Z,54.50
2018-11-20T15:35:03.218Z,86.53
2018-11-20T15:37:56.512Z,50.80
2018-11-20T15:40:47.066Z,54.67
2018-11-20T15:43:22.668Z,67.20
2018-11-20T15:46:09.015Z,56.23
2018-11-20T15:48:55.384Z,49.83
2018-11-20T15:51:45.653Z,50.53
2018-11-20T15:54:28.080Z,51.27
2018-11-20T15:57:14.252Z,50.70
2018-11-20T16:00:13.917Z,56.37
2018-11-20T16:03:23.018Z,51.10
2018-11-20T16:05:56.771Z,57.27
2018-11-20T16:08:47.066Z,53.10
2018-11-20T16:11:27.336Z,49.90
2018-11-20T16:14:24.164Z,54.00
2018-11-20T16:17:27.061Z,50.50
2018-11-20T16:20:23.693Z,49.93
2018-11-20T16:23:11.223Z,54.53
2018-11-20T16:26:17.455Z,52.33
2018-11-20T16:29:04.059Z,57.30
2018-11-20T16:32:03.841Z,55.63
2018-11-20T16:34:50.067Z,55.07
2018-11-20T16:37:46.719Z,54.30
2018-11-20T16:40:33.320Z,52.27
2018-11-20T16:43:24.761Z,54.23
2018-11-20T16:46:10.918Z,50.80
2018-11-20T16:48:58.484Z,56.87
2018-11-20T16:51:58.018Z,53.63
2018-11-20T16:54:54.594Z,54.77
2018-11-20T16:57:45.319Z,50.13
2018-11-20T17:00:32.920Z,53.97
2018-11-20T17:03:35.535Z,55.07
2018-11-20T17:06:21.723Z,46.47
2018-11-20T17:09:17.904Z,56.27
2018-11-20T17:12:05.090Z,58.73
2018-11-20T17:14:57.456Z,56.27
2018-11-20T17:17:43.671Z,53.30
2018-11-20T17:20:35.968Z,53.53
2018-11-20T17:23:35.841Z,53.13
2018-11-20T17:26:29.127Z,58.53
2018-11-20T17:29:15.525Z,56.53
2018-11-20T17:32:15.543Z,58.67
2018-11-20T17:35:01.404Z,56.30
2018-11-20T17:37:55.667Z,61.80
2018-11-20T17:40:43.167Z,62.40
2018-11-20T17:43:29.672Z,60.60
2018-11-20T17:46:17.268Z,57.93
2018-11-20T17:49:03.296Z,60.37
2018-11-20T17:51:49.838Z,62.40
2018-11-20T17:54:37.362Z,58.93
2018-11-20T17:57:23.943Z,62.67
2018-11-20T18:00:14.869Z,65.00
2018-11-20T18:03:05.763Z,79.57
2018-11-20T18:05:53.216Z,72.97
2018-11-20T18:08:39.931Z,75.60
2018-11-20T18:11:26.040Z,68.47
2018-11-20T18:14:07.929Z,66.80
2018-11-20T18:17:04.267Z,61.23
2018-11-20T18:19:47.107Z,66.00
2018-11-20T18:22:37.631Z,62.57
2018-11-20T18:25:25.786Z,58.77
2018-11-20T18:28:22.619Z,64.10
2018-11-20T18:31:09.022Z,61.57
2018-11-20T18:34:05.613Z,61.70
2018-11-20T18:36:53.018Z,58.47
2018-11-20T18:39:42.191Z,65.60
2018-11-20T18:42:48.133Z,57.77
2018-11-20T18:45:34.665Z,53.57
2018-11-20T18:48:25.549Z,61.10
2018-11-20T18:51:17.915Z,59.10
2018-11-20T18:54:04.521Z,66.27
2018-11-20T18:56:50.551Z,60.03
2018-11-20T18:59:56.982Z,61.70
2018-11-20T19:02:53.145Z,62.30
2018-11-20T19:05:39.560Z,56.30
2018-11-20T19:08:32.945Z,59.27
2018-11-20T19:11:19.382Z,64.97
2018-11-20T19:14:19.382Z,60.30
2018-11-20T19:17:25.060Z,63.60
2018-11-20T19:20:10.074Z,70.67
2018-11-20T19:22:56.002Z,65.67
2018-11-20T19:25:49.558Z,68.80
2018-11-20T19:28:38.232Z,65.90
2018-11-20T19:31:41.187Z,69.80
2018-11-20T19:34:20.736Z,64.20
2018-11-20T19:37:07.756Z,62.40
2018-11-20T19:39:58.741Z,69.53
2018-11-20T19:42:46.280Z,62.77
2018-11-20T19:45:27.861Z,62.03
2018-11-20T19:48:14.413Z,62.70
2018-11-20T19:51:01.961Z,60.50
2018-11-20T19:53:48.119Z,58.53
2018-11-20T19:56:34.481Z,66.57
2018-11-20T19:59:40.233Z,62.60
2018-11-20T20:02:42.935Z,60.70
2018-11-20T20:05:29.373Z,56.97
2018-11-20T20:08:15.511Z,60.03
2018-11-20T20:11:12.189Z,66.07
2018-11-20T20:13:58.834Z,58.33
2018-11-20T20:16:50.591Z,56.77
2018-11-20T20:19:44.091Z,64.40
2018-11-20T20:22:31.993Z,60.23
2018-11-20T20:25:18.358Z,55.97
2018-11-20T20:28:04.783Z,57.47
2018-11-20T20:30:51.232Z,66.27
2018-11-20T20:33:39.143Z,58.53
2018-11-20T20:36:32.641Z,62.23
2018-11-20T20:39:19.253Z,58.50
2018-11-20T20:42:19.241Z,58.13
2018-11-20T20:45:05.524Z,55.73
2018-11-20T20:47:45.942Z,61.27
2018-11-20T20:50:33.494Z,60.10
2018-11-20T20:53:20.995Z,59.23
2018-11-20T20:56:05.366Z,60.63
2018-11-20T20:59:01.854Z,58.37
2018-11-20T21:01:48.406Z,63.03
2018-11-20T21:04:30.600Z,58.10
2018-11-20T21:07:36.218Z,58.87
2018-11-20T21:10:24.126Z,61.73
2018-11-20T21:13:14.707Z,67.93
2018-11-20T21:16:01.290Z,62.27
2018-11-20T21:18:47.528Z,68.13
2018-11-20T21:21:27.943Z,58.63
2018-11-20T21:24:18.986Z,59.83
2018-11-20T21:27:06.059Z,56.83
2018-11-20T21:30:02.924Z,58.87
2018-11-20T21:32:50.509Z,63.60
2018-11-20T21:35:36.752Z,65.23
2018-11-20T21:38:26.810Z,62.13
2018-11-20T21:41:33.063Z,72.03
2018-11-20T21:44:19.244Z,82.47
2018-11-20T21:46:58.645Z,71.77
2018-11-20T21:49:45.041Z,67.10
2018-11-20T21:52:41.490Z,71.03
2018-11-20T21:55:41.176Z,66.07
2018-11-20T21:58:24.056Z,66.23
2018-11-20T22:01:11.394Z,61.17
2018-11-20T22:03:57.612Z,64.43
2018-11-20T22:06:47.944Z,67.97
2018-11-20T22:09:38.120Z,68.53
2018-11-20T22:12:24.382Z,61.00
2018-11-20T22:15:17.676Z,67.50
2018-11-20T22:18:11.306Z,63.37
2018-11-20T22:20:57.721Z,65.57
2018-11-20T22:23:43.886Z,59.77
2018-11-20T22:26:31.410Z,62.13
2018-11-20T22:29:18.914Z,66.43
2018-11-20T22:32:15.230Z,67.47
2018-11-20T22:35:06.790Z,63.53
2018-11-20T22:37:54.325Z,62.00
2018-11-20T22:40:47.716Z,61.43
2018-11-20T22:43:53.653Z,62.40
2018-11-20T22:46:43.764Z,62.07
2018-11-20T22:49:31.293Z,63.83
2018-11-20T22:52:21.377Z,63.23
2018-11-20T22:55:07.674Z,63.43
2018-11-20T22:57:53.673Z,67.60
2018-11-20T23:00:41.295Z,66.13
2018-11-20T23:03:44.207Z,62.83
2018-11-20T23:06:36.535Z,61.23
2018-11-20T23:09:06.554Z,65.33
2018-11-20T23:11:34.927Z,64.03
2018-11-20T23:14:03.271Z,60.87
2018-11-20T23:16:31.651Z,56.20
2018-11-20T23:19:00.399Z,60.93
2018-11-20T23:21:28.849Z,64.00
2018-11-20T23:23:57.215Z,62.63
2018-11-20T23:26:25.990Z,63.27
2018-11-20T23:28:54.343Z,60.90
2018-11-20T23:31:22.742Z,63.30
2018-11-20T23:33:51.187Z,62.97
2018-11-20T23:36:19.569Z,62.40
2018-11-20T23:38:48.221Z,68.53
2018-11-20T23:41:16.679Z,67.47
2018-11-20T23:43:45.104Z,66.07
2018-11-20T23:46:13.529Z,63.33
2018-11-20T23:48:42.324Z,64.27
2018-11-20T23:51:10.719Z,68.13
2018-11-20T23:53:39.090Z,60.67
2018-11-20T23:56:08.166Z,63.87
2018-11-20T23:58:36.516Z,64.77
